sensor_id;sensor_type;location;lat;lon;timestamp;P1;durP1;ratioP1;P2;durP2;ratioP2
42590;SDS011;28218;53.342;-6.216;2022-09-09T00:01:16;10.52;;;5.80;;
42590;SDS011;28218;53.342;-6.216;2022-09-09T00:04:00;13.70;;;6.00;;
42590;SDS011;28218;53.342;-6.216;2022-09-09T00:06:33;12.77;;;6.47;;
42590;SDS011;28218;53.342;-6.216;2022-09-09T00:09:11;12.25;;;6.40;;
42590;SDS011;28218;53.342;-6.216;2022-09-09T00:11:43;19.95;;;6.72;;
42590;SDS011;28218;53.342;-6.216;2022-09-09T00:14:17;13.73;;;6.30;;
42590;SDS011;28218;53.342;-6.216;2022-09-09T00:16:53;11.88;;;7.07;;
42590;SDS011;28218;53.342;-6.216;2022-09-09T00:19:27;16.80;;;6.53;;
42590;SDS011;28218;53.342;-6.216;2022-09-09T00:22:04;16.08;;;6.40;;
42590;SDS011;28218;53.342;-6.216;2022-09-09T00:24:43;11.55;;;5.97;;
42590;SDS011;28218;53.342;-6.216;2022-09-09T00:27:16;15.15;;;6.40;;
42590;SDS011;28218;53.342;-6.216;2022-09-09T00:29:52;10.82;;;5.43;;
42590;SDS011;28218;53.342;-6.216;2022-09-09T00:32:27;12.88;;;5.75;;
42590;SDS011;28218;53.342;-6.216;2022-09-09T00:34:59;9.82;;;5.05;;
42590;SDS011;28218;53.342;-6.216;2022-09-09T00:37:30;11.93;;;5.13;;
42590;SDS011;28218;53.342;-6.216;2022-09-09T00:40:01;9.93;;;5.70;;
42590;SDS011;28218;53.342;-6.216;2022-09-09T00:42:44;13.02;;;5.78;;
42590;SDS011;28218;53.342;-6.216;2022-09-09T00:45:17;15.45;;;6.13;;
42590;SDS011;28218;53.342;-6.216;2022-09-09T00:48:04;14.00;;;6.15;;
42590;SDS011;28218;53.342;-6.216;2022-09-09T00:50:41;13.85;;;6.53;;
42590;SDS011;28218;53.342;-6.216;2022-09-09T00:53:19;12.77;;;7.00;;
42590;SDS011;28218;53.342;-6.216;2022-09-09T00:55:59;15.38;;;7.20;;
42590;SDS011;28218;53.342;-6.216;2022-09-09T00:58:33;10.10;;;6.20;;
42590;SDS011;28218;53.342;-6.216;2022-09-09T01:01:02;12.15;;;6.95;;
42590;SDS011;28218;53.342;-6.216;2022-09-09T01:03:36;12.43;;;6.50;;
42590;SDS011;28218;53.342;-6.216;2022-09-09T01:06:13;13.20;;;6.50;;
42590;SDS011;28218;53.342;-6.216;2022-09-09T01:11:43;8.95;;;5.65;;
42590;SDS011;28218;53.342;-6.216;2022-09-09T01:14:22;11.93;;;5.67;;
42590;SDS011;28218;53.342;-6.216;2022-09-09T01:17:01;14.30;;;5.90;;
42590;SDS011;28218;53.342;-6.216;2022-09-09T01:19:37;9.70;;;5.25;;
42590;SDS011;28218;53.342;-6.216;2022-09-09T01:22:19;13.07;;;5.93;;
42590;SDS011;28218;53.342;-6.216;2022-09-09T01:25:01;11.05;;;5.60;;
42590;SDS011;28218;53.342;-6.216;2022-09-09T01:27:50;8.05;;;5.50;;
42590;SDS011;28218;53.342;-6.216;2022-09-09T01:30:21;14.02;;;6.35;;
42590;SDS011;28218;53.342;-6.216;2022-09-09T01:32:52;8.13;;;5.13;;
42590;SDS011;28218;53.342;-6.216;2022-09-09T01:35:26;14.60;;;6.40;;
42590;SDS011;28218;53.342;-6.216;2022-09-09T01:37:59;13.05;;;6.22;;
42590;SDS011;28218;53.342;-6.216;2022-09-09T01:40:27;12.48;;;5.47;;
42590;SDS011;28218;53.342;-6.216;2022-09-09T01:42:57;10.98;;;5.28;;
42590;SDS011;28218;53.342;-6.216;2022-09-09T01:45:25;10.35;;;5.22;;
42590;SDS011;28218;53.342;-6.216;2022-09-09T01:47:54;9.23;;;6.20;;
42590;SDS011;28218;53.342;-6.216;2022-09-09T01:50:22;8.07;;;5.18;;
42590;SDS011;28218;53.342;-6.216;2022-09-09T01:52:52;11.02;;;5.65;;
42590;SDS011;28218;53.342;-6.216;2022-09-09T01:55:28;9.75;;;5.75;;
42590;SDS011;28218;53.342;-6.216;2022-09-09T01:58:01;9.15;;;4.95;;
42590;SDS011;28218;53.342;-6.216;2022-09-09T02:00:46;7.75;;;4.97;;
42590;SDS011;28218;53.342;-6.216;2022-09-09T02:03:21;9.35;;;5.00;;
42590;SDS011;28218;53.342;-6.216;2022-09-09T02:05:55;9.60;;;5.10;;
42590;SDS011;28218;53.342;-6.216;2022-09-09T02:08:33;11.77;;;5.38;;
42590;SDS011;28218;53.342;-6.216;2022-09-09T02:11:08;8.60;;;4.55;;
42590;SDS011;28218;53.342;-6.216;2022-09-09T02:13:43;7.70;;;4.28;;
42590;SDS011;28218;53.342;-6.216;2022-09-09T02:16:14;10.57;;;4.45;;
42590;SDS011;28218;53.342;-6.216;2022-09-09T02:18:50;12.68;;;4.72;;
42590;SDS011;28218;53.342;-6.216;2022-09-09T02:21:22;12.10;;;4.70;;
42590;SDS011;28218;53.342;-6.216;2022-09-09T02:23:52;10.90;;;5.07;;
42590;SDS011;28218;53.342;-6.216;2022-09-09T02:26:22;8.95;;;4.00;;
42590;SDS011;28218;53.342;-6.216;2022-09-09T02:28:55;11.27;;;4.65;;
42590;SDS011;28218;53.342;-6.216;2022-09-09T02:31:27;9.95;;;4.53;;
42590;SDS011;28218;53.342;-6.216;2022-09-09T02:33:56;10.40;;;3.88;;
42590;SDS011;28218;53.342;-6.216;2022-09-09T02:36:29;7.70;;;3.75;;
42590;SDS011;28218;53.342;-6.216;2022-09-09T02:39:00;7.95;;;4.38;;
42590;SDS011;28218;53.342;-6.216;2022-09-09T02:41:31;14.98;;;4.80;;
42590;SDS011;28218;53.342;-6.216;2022-09-09T02:44:04;10.60;;;4.60;;
42590;SDS011;28218;53.342;-6.216;2022-09-09T02:46:40;10.20;;;4.53;;
42590;SDS011;28218;53.342;-6.216;2022-09-09T02:49:21;9.50;;;4.32;;
42590;SDS011;28218;53.342;-6.216;2022-09-09T02:51:57;9.93;;;4.15;;
42590;SDS011;28218;53.342;-6.216;2022-09-09T02:54:30;9.10;;;3.75;;
42590;SDS011;28218;53.342;-6.216;2022-09-09T02:57:01;10.48;;;4.78;;
42590;SDS011;28218;53.342;-6.216;2022-09-09T02:59:35;8.40;;;4.25;;
42590;SDS011;28218;53.342;-6.216;2022-09-09T03:02:04;9.02;;;3.85;;
42590;SDS011;28218;53.342;-6.216;2022-09-09T03:04:32;8.43;;;4.40;;
42590;SDS011;28218;53.342;-6.216;2022-09-09T03:07:00;9.25;;;4.50;;
42590;SDS011;28218;53.342;-6.216;2022-09-09T03:09:30;10.25;;;4.50;;
42590;SDS011;28218;53.342;-6.216;2022-09-09T03:11:58;8.00;;;4.50;;
42590;SDS011;28218;53.342;-6.216;2022-09-09T03:14:27;10.52;;;4.60;;
42590;SDS011;28218;53.342;-6.216;2022-09-09T03:16:56;14.43;;;4.82;;
42590;SDS011;28218;53.342;-6.216;2022-09-09T03:19:27;10.88;;;4.63;;
42590;SDS011;28218;53.342;-6.216;2022-09-09T03:21:56;13.02;;;4.70;;
42590;SDS011;28218;53.342;-6.216;2022-09-09T03:24:24;6.60;;;4.22;;
42590;SDS011;28218;53.342;-6.216;2022-09-09T03:26:52;7.50;;;4.00;;
42590;SDS011;28218;53.342;-6.216;2022-09-09T03:29:22;7.55;;;4.25;;
42590;SDS011;28218;53.342;-6.216;2022-09-09T03:31:50;6.78;;;5.00;;
42590;SDS011;28218;53.342;-6.216;2022-09-09T03:34:20;9.70;;;3.97;;
42590;SDS011;28218;53.342;-6.216;2022-09-09T03:36:48;16.23;;;4.95;;
42590;SDS011;28218;53.342;-6.216;2022-09-09T03:39:16;13.82;;;5.00;;
42590;SDS011;28218;53.342;-6.216;2022-09-09T03:41:44;8.82;;;4.38;;
42590;SDS011;28218;53.342;-6.216;2022-09-09T03:44:14;6.68;;;4.32;;
42590;SDS011;28218;53.342;-6.216;2022-09-09T03:46:43;8.50;;;4.45;;
42590;SDS011;28218;53.342;-6.216;2022-09-09T03:49:11;8.82;;;4.45;;
42590;SDS011;28218;53.342;-6.216;2022-09-09T03:51:41;7.03;;;3.70;;
42590;SDS011;28218;53.342;-6.216;2022-09-09T03:54:09;7.63;;;4.15;;
42590;SDS011;28218;53.342;-6.216;2022-09-09T03:56:37;7.95;;;4.18;;
42590;SDS011;28218;53.342;-6.216;2022-09-09T03:59:07;6.13;;;3.33;;
42590;SDS011;28218;53.342;-6.216;2022-09-09T04:01:36;7.97;;;4.00;;
42590;SDS011;28218;53.342;-6.216;2022-09-09T04:04:04;6.50;;;3.90;;
42590;SDS011;28218;53.342;-6.216;2022-09-09T04:06:32;7.30;;;3.80;;
42590;SDS011;28218;53.342;-6.216;2022-09-09T04:09:02;7.50;;;3.53;;
42590;SDS011;28218;53.342;-6.216;2022-09-09T04:11:30;5.63;;;3.15;;
42590;SDS011;28218;53.342;-6.216;2022-09-09T04:13:58;6.70;;;3.30;;
42590;SDS011;28218;53.342;-6.216;2022-09-09T04:16:27;7.25;;;3.35;;
42590;SDS011;28218;53.342;-6.216;2022-09-09T04:18:55;13.98;;;4.60;;
42590;SDS011;28218;53.342;-6.216;2022-09-09T04:21:24;5.07;;;2.90;;
42590;SDS011;28218;53.342;-6.216;2022-09-09T04:23:52;7.35;;;3.13;;
42590;SDS011;28218;53.342;-6.216;2022-09-09T04:26:22;5.05;;;3.53;;
42590;SDS011;28218;53.342;-6.216;2022-09-09T04:28:50;7.40;;;3.28;;
42590;SDS011;28218;53.342;-6.216;2022-09-09T04:31:19;5.53;;;3.20;;
42590;SDS011;28218;53.342;-6.216;2022-09-09T04:33:50;4.47;;;3.13;;
42590;SDS011;28218;53.342;-6.216;2022-09-09T04:36:19;5.80;;;2.70;;
42590;SDS011;28218;53.342;-6.216;2022-09-09T04:38:47;10.68;;;3.13;;
42590;SDS011;28218;53.342;-6.216;2022-09-09T04:41:16;3.63;;;2.88;;
42590;SDS011;28218;53.342;-6.216;2022-09-09T04:43:45;7.07;;;3.17;;
42590;SDS011;28218;53.342;-6.216;2022-09-09T04:46:14;5.20;;;3.35;;
42590;SDS011;28218;53.342;-6.216;2022-09-09T04:48:43;4.45;;;3.30;;
42590;SDS011;28218;53.342;-6.216;2022-09-09T04:51:12;8.50;;;2.70;;
42590;SDS011;28218;53.342;-6.216;2022-09-09T04:53:41;11.82;;;2.78;;
42590;SDS011;28218;53.342;-6.216;2022-09-09T04:56:10;5.05;;;2.75;;
42590;SDS011;28218;53.342;-6.216;2022-09-09T04:58:40;4.47;;;2.70;;
42590;SDS011;28218;53.342;-6.216;2022-09-09T05:01:11;7.97;;;3.30;;
42590;SDS011;28218;53.342;-6.216;2022-09-09T05:03:40;12.63;;;3.05;;
42590;SDS011;28218;53.342;-6.216;2022-09-09T05:06:09;4.03;;;2.72;;
42590;SDS011;28218;53.342;-6.216;2022-09-09T05:08:39;6.67;;;2.70;;
42590;SDS011;28218;53.342;-6.216;2022-09-09T05:11:13;4.63;;;2.63;;
42590;SDS011;28218;53.342;-6.216;2022-09-09T05:13:43;7.65;;;3.13;;
42590;SDS011;28218;53.342;-6.216;2022-09-09T05:16:13;6.53;;;2.88;;
42590;SDS011;28218;53.342;-6.216;2022-09-09T05:18:42;5.07;;;2.80;;
42590;SDS011;28218;53.342;-6.216;2022-09-09T05:21:13;6.25;;;3.10;;
42590;SDS011;28218;53.342;-6.216;2022-09-09T05:23:42;4.43;;;2.88;;
42590;SDS011;28218;53.342;-6.216;2022-09-09T05:26:11;4.85;;;3.25;;
42590;SDS011;28218;53.342;-6.216;2022-09-09T05:28:43;3.97;;;2.53;;
42590;SDS011;28218;53.342;-6.216;2022-09-09T05:31:14;5.70;;;2.40;;
42590;SDS011;28218;53.342;-6.216;2022-09-09T05:33:44;6.57;;;3.20;;
42590;SDS011;28218;53.342;-6.216;2022-09-09T05:36:15;4.00;;;2.78;;
42590;SDS011;28218;53.342;-6.216;2022-09-09T05:38:44;5.22;;;3.13;;
42590;SDS011;28218;53.342;-6.216;2022-09-09T05:41:13;5.93;;;3.15;;
42590;SDS011;28218;53.342;-6.216;2022-09-09T05:43:42;6.72;;;4.22;;
42590;SDS011;28218;53.342;-6.216;2022-09-09T05:46:15;5.13;;;3.17;;
42590;SDS011;28218;53.342;-6.216;2022-09-09T05:48:44;4.28;;;3.10;;
42590;SDS011;28218;53.342;-6.216;2022-09-09T05:51:15;4.55;;;2.80;;
42590;SDS011;28218;53.342;-6.216;2022-09-09T05:53:44;5.07;;;2.80;;
42590;SDS011;28218;53.342;-6.216;2022-09-09T05:56:13;4.75;;;3.08;;
42590;SDS011;28218;53.342;-6.216;2022-09-09T05:58:44;8.00;;;3.10;;
42590;SDS011;28218;53.342;-6.216;2022-09-09T06:01:15;7.28;;;3.42;;
42590;SDS011;28218;53.342;-6.216;2022-09-09T06:06:14;4.45;;;3.28;;
42590;SDS011;28218;53.342;-6.216;2022-09-09T06:08:47;5.03;;;3.38;;
42590;SDS011;28218;53.342;-6.216;2022-09-09T06:11:18;10.02;;;3.35;;
42590;SDS011;28218;53.342;-6.216;2022-09-09T06:13:48;7.65;;;3.25;;
42590;SDS011;28218;53.342;-6.216;2022-09-09T06:16:20;5.55;;;3.30;;
42590;SDS011;28218;53.342;-6.216;2022-09-09T06:18:50;4.60;;;3.60;;
42590;SDS011;28218;53.342;-6.216;2022-09-09T06:21:21;4.30;;;3.25;;
42590;SDS011;28218;53.342;-6.216;2022-09-09T06:23:50;7.10;;;3.08;;
42590;SDS011;28218;53.342;-6.216;2022-09-09T06:26:24;5.35;;;3.17;;
42590;SDS011;28218;53.342;-6.216;2022-09-09T06:28:54;8.23;;;3.00;;
42590;SDS011;28218;53.342;-6.216;2022-09-09T06:31:26;6.82;;;3.63;;
42590;SDS011;28218;53.342;-6.216;2022-09-09T06:33:57;12.23;;;5.25;;
42590;SDS011;28218;53.342;-6.216;2022-09-09T06:36:26;7.13;;;3.88;;
42590;SDS011;28218;53.342;-6.216;2022-09-09T06:38:55;7.13;;;3.50;;
42590;SDS011;28218;53.342;-6.216;2022-09-09T06:41:24;4.82;;;3.72;;
42590;SDS011;28218;53.342;-6.216;2022-09-09T06:43:53;5.13;;;3.05;;
42590;SDS011;28218;53.342;-6.216;2022-09-09T06:46:24;8.77;;;2.72;;
42590;SDS011;28218;53.342;-6.216;2022-09-09T06:51:27;5.72;;;3.13;;
42590;SDS011;28218;53.342;-6.216;2022-09-09T06:53:56;5.65;;;3.35;;
42590;SDS011;28218;53.342;-6.216;2022-09-09T06:56:26;6.10;;;3.03;;
42590;SDS011;28218;53.342;-6.216;2022-09-09T06:58:56;5.03;;;3.28;;
42590;SDS011;28218;53.342;-6.216;2022-09-09T07:01:31;7.70;;;2.75;;
42590;SDS011;28218;53.342;-6.216;2022-09-09T07:04:02;5.25;;;3.05;;
42590;SDS011;28218;53.342;-6.216;2022-09-09T07:06:34;4.72;;;3.15;;
42590;SDS011;28218;53.342;-6.216;2022-09-09T07:09:04;5.35;;;3.70;;
42590;SDS011;28218;53.342;-6.216;2022-09-09T07:11:36;2.92;;;2.70;;
42590;SDS011;28218;53.342;-6.216;2022-09-09T07:14:05;7.85;;;3.78;;
42590;SDS011;28218;53.342;-6.216;2022-09-09T07:16:35;2.92;;;2.05;;
42590;SDS011;28218;53.342;-6.216;2022-09-09T07:19:04;5.93;;;2.63;;
42590;SDS011;28218;53.342;-6.216;2022-09-09T07:21:33;3.75;;;2.25;;
42590;SDS011;28218;53.342;-6.216;2022-09-09T07:24:02;5.60;;;3.00;;
42590;SDS011;28218;53.342;-6.216;2022-09-09T07:29:02;3.15;;;2.50;;
42590;SDS011;28218;53.342;-6.216;2022-09-09T07:31:31;2.35;;;1.70;;
42590;SDS011;28218;53.342;-6.216;2022-09-09T07:34:03;2.50;;;1.80;;
42590;SDS011;28218;53.342;-6.216;2022-09-09T07:36:33;3.70;;;2.07;;
42590;SDS011;28218;53.342;-6.216;2022-09-09T07:39:03;3.42;;;2.38;;
42590;SDS011;28218;53.342;-6.216;2022-09-09T07:41:34;3.03;;;2.63;;
42590;SDS011;28218;53.342;-6.216;2022-09-09T07:44:05;6.50;;;2.65;;
42590;SDS011;28218;53.342;-6.216;2022-09-09T07:46:34;5.13;;;2.70;;
42590;SDS011;28218;53.342;-6.216;2022-09-09T07:49:04;4.53;;;2.97;;
42590;SDS011;28218;53.342;-6.216;2022-09-09T07:51:34;5.72;;;2.50;;
42590;SDS011;28218;53.342;-6.216;2022-09-09T07:54:03;4.55;;;3.42;;
42590;SDS011;28218;53.342;-6.216;2022-09-09T07:56:35;6.60;;;3.67;;
42590;SDS011;28218;53.342;-6.216;2022-09-09T07:59:06;16.42;;;10.63;;
42590;SDS011;28218;53.342;-6.216;2022-09-09T08:01:37;13.10;;;10.48;;
42590;SDS011;28218;53.342;-6.216;2022-09-09T08:04:08;9.15;;;5.82;;
42590;SDS011;28218;53.342;-6.216;2022-09-09T08:06:43;3.20;;;2.20;;
42590;SDS011;28218;53.342;-6.216;2022-09-09T08:09:13;3.35;;;2.40;;
42590;SDS011;28218;53.342;-6.216;2022-09-09T08:11:41;3.47;;;2.17;;
42590;SDS011;28218;53.342;-6.216;2022-09-09T08:14:10;2.83;;;2.08;;
42590;SDS011;28218;53.342;-6.216;2022-09-09T08:16:40;5.75;;;2.45;;
42590;SDS011;28218;53.342;-6.216;2022-09-09T08:19:11;4.93;;;1.20;;
42590;SDS011;28218;53.342;-6.216;2022-09-09T08:21:42;7.22;;;1.30;;
42590;SDS011;28218;53.342;-6.216;2022-09-09T08:24:11;2.97;;;1.23;;
42590;SDS011;28218;53.342;-6.216;2022-09-09T08:26:42;1.17;;;1.10;;
42590;SDS011;28218;53.342;-6.216;2022-09-09T08:29:12;3.05;;;1.02;;
42590;SDS011;28218;53.342;-6.216;2022-09-09T08:31:41;4.05;;;1.17;;
42590;SDS011;28218;53.342;-6.216;2022-09-09T08:34:13;2.58;;;0.82;;
42590;SDS011;28218;53.342;-6.216;2022-09-09T08:36:42;5.10;;;1.00;;
42590;SDS011;28218;53.342;-6.216;2022-09-09T08:39:12;3.00;;;0.68;;
42590;SDS011;28218;53.342;-6.216;2022-09-09T08:41:49;2.40;;;1.23;;
42590;SDS011;28218;53.342;-6.216;2022-09-09T08:44:31;2.42;;;1.00;;
42590;SDS011;28218;53.342;-6.216;2022-09-09T08:47:16;2.92;;;1.13;;
42590;SDS011;28218;53.342;-6.216;2022-09-09T08:50:04;3.03;;;0.90;;
42590;SDS011;28218;53.342;-6.216;2022-09-09T08:52:42;3.17;;;1.10;;
42590;SDS011;28218;53.342;-6.216;2022-09-09T08:55:20;2.25;;;0.70;;
42590;SDS011;28218;53.342;-6.216;2022-09-09T08:57:57;6.13;;;2.13;;
42590;SDS011;28218;53.342;-6.216;2022-09-09T09:00:30;4.50;;;1.05;;
42590;SDS011;28218;53.342;-6.216;2022-09-09T09:03:10;4.85;;;0.93;;
42590;SDS011;28218;53.342;-6.216;2022-09-09T09:05:50;2.47;;;0.90;;
42590;SDS011;28218;53.342;-6.216;2022-09-09T09:08:26;1.73;;;0.70;;
42590;SDS011;28218;53.342;-6.216;2022-09-09T09:11:00;5.55;;;1.90;;
42590;SDS011;28218;53.342;-6.216;2022-09-09T09:13:31;2.28;;;0.80;;
42590;SDS011;28218;53.342;-6.216;2022-09-09T09:16:11;1.63;;;0.80;;
42590;SDS011;28218;53.342;-6.216;2022-09-09T09:18:45;3.45;;;0.90;;
42590;SDS011;28218;53.342;-6.216;2022-09-09T09:21:15;2.65;;;1.25;;
42590;SDS011;28218;53.342;-6.216;2022-09-09T09:23:51;3.78;;;0.80;;
42590;SDS011;28218;53.342;-6.216;2022-09-09T09:26:24;1.23;;;0.85;;
42590;SDS011;28218;53.342;-6.216;2022-09-09T09:28:58;1.73;;;1.00;;
42590;SDS011;28218;53.342;-6.216;2022-09-09T09:33:58;17.55;;;3.40;;
42590;SDS011;28218;53.342;-6.216;2022-09-09T09:36:34;14.27;;;2.10;;
42590;SDS011;28218;53.342;-6.216;2022-09-09T09:39:08;17.67;;;3.05;;
42590;SDS011;28218;53.342;-6.216;2022-09-09T09:41:57;2.60;;;0.70;;
42590;SDS011;28218;53.342;-6.216;2022-09-09T09:44:32;5.38;;;1.13;;
42590;SDS011;28218;53.342;-6.216;2022-09-09T09:47:07;2.20;;;0.80;;
42590;SDS011;28218;53.342;-6.216;2022-09-09T09:49:37;4.57;;;1.25;;
42590;SDS011;28218;53.342;-6.216;2022-09-09T09:52:12;3.38;;;0.90;;
42590;SDS011;28218;53.342;-6.216;2022-09-09T09:54:49;3.88;;;1.20;;
42590;SDS011;28218;53.342;-6.216;2022-09-09T09:57:18;1.85;;;0.85;;
42590;SDS011;28218;53.342;-6.216;2022-09-09T10:00:01;6.90;;;1.30;;
42590;SDS011;28218;53.342;-6.216;2022-09-09T10:02:37;6.88;;;1.23;;
42590;SDS011;28218;53.342;-6.216;2022-09-09T10:05:12;2.08;;;1.20;;
42590;SDS011;28218;53.342;-6.216;2022-09-09T10:07:44;3.60;;;1.48;;
42590;SDS011;28218;53.342;-6.216;2022-09-09T10:10:13;6.32;;;1.23;;
42590;SDS011;28218;53.342;-6.216;2022-09-09T10:12:52;9.27;;;1.85;;
42590;SDS011;28218;53.342;-6.216;2022-09-09T10:15:32;6.85;;;1.20;;
42590;SDS011;28218;53.342;-6.216;2022-09-09T10:18:15;10.07;;;1.63;;
42590;SDS011;28218;53.342;-6.216;2022-09-09T10:20:59;9.02;;;1.40;;
42590;SDS011;28218;53.342;-6.216;2022-09-09T10:23:42;5.50;;;1.33;;
42590;SDS011;28218;53.342;-6.216;2022-09-09T10:26:23;6.00;;;1.50;;
42590;SDS011;28218;53.342;-6.216;2022-09-09T10:29:06;9.07;;;1.60;;
42590;SDS011;28218;53.342;-6.216;2022-09-09T10:31:49;18.58;;;2.28;;
42590;SDS011;28218;53.342;-6.216;2022-09-09T10:34:35;12.63;;;2.40;;
42590;SDS011;28218;53.342;-6.216;2022-09-09T10:37:23;10.13;;;2.90;;
42590;SDS011;28218;53.342;-6.216;2022-09-09T10:40:19;2.83;;;1.77;;
42590;SDS011;28218;53.342;-6.216;2022-09-09T10:42:58;2.85;;;1.30;;
42590;SDS011;28218;53.342;-6.216;2022-09-09T10:45:37;13.40;;;2.28;;
42590;SDS011;28218;53.342;-6.216;2022-09-09T10:48:30;7.70;;;2.28;;
42590;SDS011;28218;53.342;-6.216;2022-09-09T10:51:10;16.67;;;2.40;;
42590;SDS011;28218;53.342;-6.216;2022-09-09T10:53:51;9.40;;;1.30;;
42590;SDS011;28218;53.342;-6.216;2022-09-09T10:56:27;5.10;;;1.65;;
42590;SDS011;28218;53.342;-6.216;2022-09-09T10:58:58;1.35;;;1.02;;
42590;SDS011;28218;53.342;-6.216;2022-09-09T11:01:30;5.93;;;1.30;;
42590;SDS011;28218;53.342;-6.216;2022-09-09T11:04:02;13.32;;;2.67;;
42590;SDS011;28218;53.342;-6.216;2022-09-09T11:06:39;8.32;;;1.40;;
42590;SDS011;28218;53.342;-6.216;2022-09-09T11:09:13;3.83;;;1.00;;
42590;SDS011;28218;53.342;-6.216;2022-09-09T11:11:46;3.20;;;1.00;;
42590;SDS011;28218;53.342;-6.216;2022-09-09T11:14:22;2.22;;;1.25;;
42590;SDS011;28218;53.342;-6.216;2022-09-09T11:17:03;11.68;;;1.67;;
42590;SDS011;28218;53.342;-6.216;2022-09-09T11:19:36;3.03;;;1.13;;
42590;SDS011;28218;53.342;-6.216;2022-09-09T11:22:07;6.13;;;1.38;;
42590;SDS011;28218;53.342;-6.216;2022-09-09T11:24:44;7.50;;;1.33;;
42590;SDS011;28218;53.342;-6.216;2022-09-09T11:27:20;6.80;;;1.27;;
42590;SDS011;28218;53.342;-6.216;2022-09-09T11:30:01;11.00;;;1.77;;
42590;SDS011;28218;53.342;-6.216;2022-09-09T11:32:47;10.17;;;1.60;;
42590;SDS011;28218;53.342;-6.216;2022-09-09T11:35:48;4.93;;;1.40;;
42590;SDS011;28218;53.342;-6.216;2022-09-09T11:38:27;4.28;;;1.27;;
42590;SDS011;28218;53.342;-6.216;2022-09-09T11:41:00;2.45;;;0.90;;
42590;SDS011;28218;53.342;-6.216;2022-09-09T11:43:32;2.10;;;1.48;;
42590;SDS011;28218;53.342;-6.216;2022-09-09T11:46:07;6.45;;;1.30;;
42590;SDS011;28218;53.342;-6.216;2022-09-09T11:48:38;2.50;;;1.08;;
42590;SDS011;28218;53.342;-6.216;2022-09-09T11:51:10;5.53;;;1.10;;
42590;SDS011;28218;53.342;-6.216;2022-09-09T11:53:49;1.85;;;0.80;;
42590;SDS011;28218;53.342;-6.216;2022-09-09T11:56:25;3.70;;;1.35;;
42590;SDS011;28218;53.342;-6.216;2022-09-09T11:58:59;3.95;;;1.23;;
42590;SDS011;28218;53.342;-6.216;2022-09-09T12:01:33;2.78;;;1.25;;
42590;SDS011;28218;53.342;-6.216;2022-09-09T12:07:01;4.13;;;1.30;;
42590;SDS011;28218;53.342;-6.216;2022-09-09T12:09:43;10.13;;;1.30;;
42590;SDS011;28218;53.342;-6.216;2022-09-09T12:12:22;4.15;;;1.42;;
42590;SDS011;28218;53.342;-6.216;2022-09-09T12:17:49;2.65;;;1.50;;
42590;SDS011;28218;53.342;-6.216;2022-09-09T12:20:19;1.63;;;1.52;;
42590;SDS011;28218;53.342;-6.216;2022-09-09T12:23:02;7.82;;;1.45;;
42590;SDS011;28218;53.342;-6.216;2022-09-09T12:25:48;11.13;;;1.90;;
42590;SDS011;28218;53.342;-6.216;2022-09-09T12:28:25;7.57;;;1.83;;
42590;SDS011;28218;53.342;-6.216;2022-09-09T12:31:04;3.95;;;1.80;;
42590;SDS011;28218;53.342;-6.216;2022-09-09T12:33:39;4.60;;;1.67;;
42590;SDS011;28218;53.342;-6.216;2022-09-09T12:36:10;4.88;;;2.13;;
42590;SDS011;28218;53.342;-6.216;2022-09-09T12:38:42;9.10;;;1.88;;
42590;SDS011;28218;53.342;-6.216;2022-09-09T12:41:17;9.73;;;2.75;;
42590;SDS011;28218;53.342;-6.216;2022-09-09T12:43:48;6.38;;;1.90;;
42590;SDS011;28218;53.342;-6.216;2022-09-09T12:46:23;6.32;;;2.53;;
42590;SDS011;28218;53.342;-6.216;2022-09-09T12:49:00;2.90;;;2.38;;
42590;SDS011;28218;53.342;-6.216;2022-09-09T12:51:29;8.52;;;3.30;;
42590;SDS011;28218;53.342;-6.216;2022-09-09T12:53:59;3.38;;;2.00;;
42590;SDS011;28218;53.342;-6.216;2022-09-09T12:56:29;4.18;;;1.60;;
42590;SDS011;28218;53.342;-6.216;2022-09-09T12:58:59;3.13;;;1.85;;
42590;SDS011;28218;53.342;-6.216;2022-09-09T13:01:30;2.50;;;1.42;;
42590;SDS011;28218;53.342;-6.216;2022-09-09T13:04:00;1.92;;;1.40;;
42590;SDS011;28218;53.342;-6.216;2022-09-09T13:06:29;5.25;;;1.80;;
42590;SDS011;28218;53.342;-6.216;2022-09-09T13:08:59;5.10;;;1.73;;
42590;SDS011;28218;53.342;-6.216;2022-09-09T13:11:29;5.55;;;1.92;;
42590;SDS011;28218;53.342;-6.216;2022-09-09T13:14:03;3.75;;;1.30;;
42590;SDS011;28218;53.342;-6.216;2022-09-09T13:16:34;4.68;;;1.58;;
42590;SDS011;28218;53.342;-6.216;2022-09-09T13:19:09;3.67;;;1.20;;
42590;SDS011;28218;53.342;-6.216;2022-09-09T13:21:41;3.15;;;1.17;;
42590;SDS011;28218;53.342;-6.216;2022-09-09T13:24:22;3.63;;;1.25;;
42590;SDS011;28218;53.342;-6.216;2022-09-09T13:26:56;4.63;;;1.70;;
42590;SDS011;28218;53.342;-6.216;2022-09-09T13:29:24;10.93;;;3.88;;
42590;SDS011;28218;53.342;-6.216;2022-09-09T13:31:54;4.53;;;1.95;;
42590;SDS011;28218;53.342;-6.216;2022-09-09T13:34:32;5.82;;;1.60;;
42590;SDS011;28218;53.342;-6.216;2022-09-09T13:37:02;11.52;;;2.20;;
42590;SDS011;28218;53.342;-6.216;2022-09-09T13:39:33;10.32;;;2.33;;
42590;SDS011;28218;53.342;-6.216;2022-09-09T13:42:04;4.13;;;2.53;;
42590;SDS011;28218;53.342;-6.216;2022-09-09T13:44:34;6.70;;;3.10;;
42590;SDS011;28218;53.342;-6.216;2022-09-09T13:47:06;3.10;;;2.42;;
42590;SDS011;28218;53.342;-6.216;2022-09-09T13:49:46;3.97;;;2.30;;
42590;SDS011;28218;53.342;-6.216;2022-09-09T13:52:15;4.90;;;2.20;;
42590;SDS011;28218;53.342;-6.216;2022-09-09T13:54:46;3.83;;;2.20;;
42590;SDS011;28218;53.342;-6.216;2022-09-09T13:57:15;4.80;;;1.98;;
42590;SDS011;28218;53.342;-6.216;2022-09-09T13:59:45;3.00;;;1.92;;
42590;SDS011;28218;53.342;-6.216;2022-09-09T14:02:33;4.20;;;2.95;;
42590;SDS011;28218;53.342;-6.216;2022-09-09T14:05:01;4.03;;;2.55;;
42590;SDS011;28218;53.342;-6.216;2022-09-09T14:07:29;3.45;;;2.45;;
42590;SDS011;28218;53.342;-6.216;2022-09-09T14:09:58;5.97;;;3.75;;
42590;SDS011;28218;53.342;-6.216;2022-09-09T14:12:26;9.65;;;4.00;;
42590;SDS011;28218;53.342;-6.216;2022-09-09T14:14:55;9.45;;;3.80;;
42590;SDS011;28218;53.342;-6.216;2022-09-09T14:17:23;18.38;;;4.15;;
42590;SDS011;28218;53.342;-6.216;2022-09-09T14:19:52;17.35;;;4.07;;
42590;SDS011;28218;53.342;-6.216;2022-09-09T14:22:21;10.02;;;3.28;;
42590;SDS011;28218;53.342;-6.216;2022-09-09T14:24:50;4.00;;;2.35;;
42590;SDS011;28218;53.342;-6.216;2022-09-09T14:27:19;3.65;;;2.72;;
42590;SDS011;28218;53.342;-6.216;2022-09-09T14:29:47;4.47;;;3.40;;
42590;SDS011;28218;53.342;-6.216;2022-09-09T14:32:15;3.53;;;2.25;;
42590;SDS011;28218;53.342;-6.216;2022-09-09T14:34:43;4.30;;;1.63;;
42590;SDS011;28218;53.342;-6.216;2022-09-09T14:37:13;2.03;;;1.67;;
42590;SDS011;28218;53.342;-6.216;2022-09-09T14:39:41;2.92;;;1.27;;
42590;SDS011;28218;53.342;-6.216;2022-09-09T14:42:10;1.85;;;1.20;;
42590;SDS011;28218;53.342;-6.216;2022-09-09T14:44:38;4.38;;;1.20;;
42590;SDS011;28218;53.342;-6.216;2022-09-09T14:47:07;3.40;;;1.35;;
42590;SDS011;28218;53.342;-6.216;2022-09-09T14:49:36;1.85;;;1.35;;
42590;SDS011;28218;53.342;-6.216;2022-09-09T14:52:09;7.03;;;1.20;;
42590;SDS011;28218;53.342;-6.216;2022-09-09T14:54:39;4.43;;;1.67;;
42590;SDS011;28218;53.342;-6.216;2022-09-09T14:57:07;2.47;;;1.80;;
42590;SDS011;28218;53.342;-6.216;2022-09-09T14:59:35;1.80;;;1.50;;
42590;SDS011;28218;53.342;-6.216;2022-09-09T15:02:03;2.80;;;1.30;;
42590;SDS011;28218;53.342;-6.216;2022-09-09T15:04:32;5.53;;;1.30;;
42590;SDS011;28218;53.342;-6.216;2022-09-09T15:07:00;2.13;;;0.85;;
42590;SDS011;28218;53.342;-6.216;2022-09-09T15:09:29;0.90;;;0.90;;
42590;SDS011;28218;53.342;-6.216;2022-09-09T15:11:58;1.75;;;0.57;;
42590;SDS011;28218;53.342;-6.216;2022-09-09T15:14:28;0.77;;;0.77;;
42590;SDS011;28218;53.342;-6.216;2022-09-09T15:16:57;1.92;;;0.80;;
42590;SDS011;28218;53.342;-6.216;2022-09-09T15:19:25;1.52;;;0.70;;
42590;SDS011;28218;53.342;-6.216;2022-09-09T15:21:53;1.75;;;0.82;;